Time;durP1;ratioP1;P1;durP2;ratioP2;P2;SDS_P1;SDS_P2;PMS_P1;PMS_P2;Temp;Humidity;BMP_temperature;BMP_pressure;BME280_temperature;BME280_humidity;BME280_pressure;Samples;Min_cycle;Max_cycle;Signal;HPM_P1;HPM_P2
2023/06/08 00:00:09;;;;;;;5.10;1.25;;;17.40;84.60;;;;;;5088453;28;20182;-79
2023/06/08 00:02:35;;;;;;;2.53;1.38;;;17.30;84.90;;;;;;5080243;28;20178;-79
2023/06/08 00:05:02;;;;;;;1.67;1.58;;;17.30;85.10;;;;;;5087223;28;20170;-79
2023/06/08 00:07:29;;;;;;;1.45;1.45;;;17.30;84.70;;;;;;5093998;28;20560;-79
2023/06/08 00:09:57;;;;;;;1.52;1.42;;;17.40;84.70;;;;;;5089781;28;20678;-79
2023/06/08 00:12:22;;;;;;;2.08;1.85;;;17.30;84.20;;;;;;5098735;28;20239;-79
2023/06/08 00:14:48;;;;;;;1.20;1.20;;;17.30;84.00;;;;;;5100068;28;20644;-79
2023/06/08 00:17:14;;;;;;;2.58;1.02;;;17.30;83.80;;;;;;5073651;28;20182;-79
2023/06/08 00:19:42;;;;;;;1.35;1.33;;;17.30;83.60;;;;;;5069917;28;20239;-79
2023/06/08 00:22:08;;;;;;;1.30;1.30;;;17.20;84.10;;;;;;5105152;28;20196;-79
2023/06/08 00:24:35;;;;;;;0.90;0.90;;;17.20;83.70;;;;;;5082990;28;20197;-79
2023/06/08 00:27:01;;;;;;;1.17;1.17;;;17.20;83.70;;;;;;5096049;28;20182;-79
2023/06/08 00:29:27;;;;;;;0.95;0.95;;;17.20;83.70;;;;;;5078402;28;20194;-79
2023/06/08 00:31:53;;;;;;;1.85;1.02;;;17.10;83.70;;;;;;5086394;28;20580;-80
2023/06/08 00:34:19;;;;;;;1.10;1.00;;;17.10;84.00;;;;;;5096678;28;20171;-79
2023/06/08 00:36:45;;;;;;;0.95;0.95;;;17.10;83.60;;;;;;5098273;28;20197;-79
2023/06/08 00:39:12;;;;;;;0.98;0.98;;;17.10;83.50;;;;;;5090532;28;20208;-79
2023/06/08 00:41:37;;;;;;;1.10;1.10;;;17.10;83.70;;;;;;5072777;28;20217;-78
2023/06/08 00:44:07;;;;;;;0.90;0.90;;;17.10;83.40;;;;;;5091133;28;20175;-79
2023/06/08 00:46:33;;;;;;;1.15;1.10;;;17.00;83.40;;;;;;5078065;28;20179;-79
2023/06/08 00:49:00;;;;;;;0.82;0.82;;;17.00;83.70;;;;;;5093925;28;20643;-79
2023/06/08 00:51:31;;;;;;;0.98;0.98;;;17.00;83.50;;;;;;5105067;28;20216;-79
2023/06/08 00:53:57;;;;;;;0.85;0.85;;;17.00;83.30;;;;;;5092742;28;20174;-79
2023/06/08 00:56:26;;;;;;;0.95;0.90;;;16.90;83.80;;;;;;5095935;28;20252;-78
2023/06/08 00:59:00;;;;;;;0.80;0.80;;;16.90;83.60;;;;;;5093468;28;20176;-78
2023/06/08 01:01:35;;;;;;;0.90;0.85;;;16.90;83.70;;;;;;5096153;28;20679;-79
2023/06/08 01:04:09;;;;;;;2.10;1.15;;;16.80;84.20;;;;;;5074313;28;20662;-79
2023/06/08 01:06:38;;;;;;;0.77;0.77;;;16.70;84.30;;;;;;5107375;28;20184;-78
2023/06/08 01:09:42;;;;;;;1.15;0.88;;;16.70;84.50;;;;;;5093326;28;20673;-78
2023/06/08 01:12:41;;;;;;;1.00;1.00;;;16.60;84.40;;;;;;5097960;28;20289;-79
2023/06/08 01:15:26;;;;;;;1.10;1.10;;;16.60;83.90;;;;;;5076145;28;20665;-79
2023/06/08 01:17:57;;;;;;;2.70;1.00;;;16.60;84.10;;;;;;5090454;28;20586;-79
2023/06/08 01:20:34;;;;;;;2.25;1.02;;;16.50;84.40;;;;;;5097568;28;20178;-79
2023/06/08 01:23:09;;;;;;;0.70;0.70;;;16.50;84.20;;;;;;5075993;28;20327;-78
2023/06/08 01:25:36;;;;;;;0.90;0.90;;;16.50;84.50;;;;;;5097172;28;20185;-79
2023/06/08 01:28:13;;;;;;;0.82;0.82;;;16.40;84.90;;;;;;5099553;28;20174;-79
2023/06/08 01:30:51;;;;;;;0.95;0.90;;;16.40;84.70;;;;;;5071051;28;20186;-79
2023/06/08 01:33:19;;;;;;;0.88;0.88;;;16.40;84.70;;;;;;5080366;28;20275;-79
2023/06/08 01:35:56;;;;;;;0.98;0.98;;;16.40;84.90;;;;;;5076790;28;20186;-79
2023/06/08 01:38:34;;;;;;;1.25;1.20;;;16.40;84.90;;;;;;5072480;28;20638;-79
2023/06/08 01:41:09;;;;;;;0.88;0.88;;;16.30;85.20;;;;;;5089999;28;20246;-78
2023/06/08 01:43:41;;;;;;;1.85;1.00;;;16.20;85.30;;;;;;5088636;28;20216;-78
2023/06/08 01:46:11;;;;;;;1.85;0.77;;;16.20;85.20;;;;;;5091015;28;20178;-78
2023/06/08 01:48:38;;;;;;;1.10;1.10;;;16.20;85.30;;;;;;5091686;28;20189;-78
2023/06/08 01:51:06;;;;;;;0.70;0.70;;;16.20;85.50;;;;;;5093899;28;21125;-78
2023/06/08 01:53:32;;;;;;;0.80;0.80;;;16.10;85.50;;;;;;5091419;28;20217;-78
2023/06/08 01:55:57;;;;;;;1.13;0.98;;;16.20;85.50;;;;;;5089583;28;20862;-79
2023/06/08 01:58:23;;;;;;;0.63;0.63;;;16.10;85.80;;;;;;5096219;28;20260;-78
2023/06/08 02:00:49;;;;;;;1.00;0.90;;;16.10;85.70;;;;;;5076947;28;20639;-79
2023/06/08 02:03:15;;;;;;;1.58;1.00;;;16.10;85.70;;;;;;5093729;28;20210;-78
2023/06/08 02:05:41;;;;;;;0.60;0.55;;;16.10;85.70;;;;;;5073475;28;20669;-78
2023/06/08 02:08:06;;;;;;;1.00;0.90;;;16.10;85.80;;;;;;5095231;28;20560;-78
2023/06/08 02:10:32;;;;;;;1.25;1.25;;;16.00;86.00;;;;;;5095416;28;20177;-78
2023/06/08 02:12:57;;;;;;;0.77;0.77;;;16.00;85.90;;;;;;5105279;28;20285;-78
2023/06/08 02:15:23;;;;;;;1.15;0.88;;;16.00;86.00;;;;;;5090691;28;20185;-78
2023/06/08 02:17:49;;;;;;;0.98;0.98;;;16.00;86.10;;;;;;5075368;28;20179;-80
2023/06/08 02:20:14;;;;;;;1.35;0.82;;;16.00;86.30;;;;;;5090913;28;20198;-79
2023/06/08 02:22:40;;;;;;;3.83;1.00;;;16.00;86.10;;;;;;5097772;28;20188;-79
2023/06/08 02:25:08;;;;;;;0.80;0.80;;;15.90;86.40;;;;;;5089357;28;20178;-79
2023/06/08 02:27:36;;;;;;;1.15;1.08;;;15.90;86.30;;;;;;5105190;27;20182;-79
2023/06/08 02:30:03;;;;;;;0.63;0.63;;;15.90;86.70;;;;;;5075169;28;20223;-79
2023/06/08 02:32:35;;;;;;;2.75;0.90;;;15.80;86.50;;;;;;5091521;28;20309;-79
2023/06/08 02:35:01;;;;;;;1.08;1.08;;;15.80;86.80;;;;;;5076865;28;20268;-79
2023/06/08 02:37:27;;;;;;;1.40;1.35;;;15.70;87.00;;;;;;5095552;28;20240;-79
2023/06/08 02:39:53;;;;;;;0.90;0.90;;;15.70;87.10;;;;;;5088846;28;20190;-79
2023/06/08 02:42:19;;;;;;;0.80;0.80;;;15.70;87.00;;;;;;5094412;28;20189;-79
2023/06/08 02:44:45;;;;;;;1.25;0.90;;;15.70;87.00;;;;;;5091063;28;20190;-79
2023/06/08 02:47:12;;;;;;;1.73;0.90;;;15.70;87.20;;;;;;5078772;28;20183;-79
2023/06/08 02:49:37;;;;;;;0.90;0.90;;;15.70;87.20;;;;;;5101255;28;20182;-79
2023/06/08 02:52:03;;;;;;;1.10;0.90;;;15.60;87.30;;;;;;5098053;28;20210;-78
2023/06/08 02:54:29;;;;;;;0.90;0.90;;;15.60;87.40;;;;;;5073946;28;20182;-78
2023/06/08 02:56:56;;;;;;;1.10;1.10;;;15.60;87.60;;;;;;5071364;28;20189;-79
2023/06/08 02:59:22;;;;;;;1.00;1.00;;;15.60;87.60;;;;;;5090549;28;20183;-78
2023/06/08 03:01:53;;;;;;;2.55;1.17;;;15.60;88.10;;;;;;5076869;28;20186;-79
2023/06/08 03:04:25;;;;;;;1.08;1.08;;;15.60;87.90;;;;;;5073257;28;20183;-78
2023/06/08 03:06:53;;;;;;;1.20;1.20;;;15.60;87.80;;;;;;5095018;28;20189;-78
2023/06/08 03:09:21;;;;;;;2.03;1.30;;;15.60;87.90;;;;;;5087171;28;20186;-78
2023/06/08 03:11:47;;;;;;;0.85;0.85;;;15.60;88.00;;;;;;5088346;28;20205;-78
2023/06/08 03:14:13;;;;;;;6.07;0.77;;;15.60;88.10;;;;;;5092012;28;20181;-79
2023/06/08 03:16:38;;;;;;;0.93;0.93;;;15.60;88.10;;;;;;5073250;28;20179;-79
2023/06/08 03:19:04;;;;;;;0.90;0.90;;;15.60;88.40;;;;;;5095921;28;20189;-79
2023/06/08 03:21:31;;;;;;;0.90;0.90;;;15.60;88.20;;;;;;5093021;28;20205;-78
2023/06/08 03:23:57;;;;;;;1.73;1.10;;;15.60;88.30;;;;;;5095041;28;20185;-80
2023/06/08 03:26:22;;;;;;;1.58;0.75;;;15.70;88.30;;;;;;5094366;28;20179;-79
2023/06/08 03:28:48;;;;;;;1.25;1.23;;;15.70;88.20;;;;;;5088894;28;20174;-79
2023/06/08 03:31:13;;;;;;;1.73;1.30;;;15.70;88.20;;;;;;5094825;28;20217;-80
2023/06/08 03:33:40;;;;;;;1.25;1.15;;;15.70;88.20;;;;;;5093175;28;20210;-80
2023/06/08 03:36:06;;;;;;;2.70;0.98;;;15.70;88.20;;;;;;5094505;28;20183;-80
2023/06/08 03:38:32;;;;;;;1.25;1.25;;;15.70;88.10;;;;;;5091258;28;20185;-80
2023/06/08 03:40:57;;;;;;;1.00;1.00;;;15.70;88.20;;;;;;5088601;28;20181;-80
2023/06/08 03:43:23;;;;;;;1.15;1.15;;;15.70;88.20;;;;;;5089858;28;20198;-78
2023/06/08 03:45:49;;;;;;;1.17;1.15;;;15.80;88.20;;;;;;5090923;28;20552;-78
2023/06/08 03:48:15;;;;;;;2.05;1.50;;;15.80;88.20;;;;;;5089097;28;20749;-80
2023/06/08 03:50:43;;;;;;;1.20;1.08;;;15.80;88.20;;;;;;5089061;28;20174;-79
2023/06/08 03:53:11;;;;;;;1.67;1.58;;;15.80;88.30;;;;;;5089695;28;20214;-79
2023/06/08 03:55:36;;;;;;;1.63;1.52;;;15.80;88.20;;;;;;5088944;28;20178;-78
2023/06/08 03:58:02;;;;;;;1.10;1.10;;;15.90;88.30;;;;;;5092924;28;20208;-79
2023/06/08 04:00:29;;;;;;;1.17;1.17;;;15.90;88.20;;;;;;5089230;28;20174;-80
2023/06/08 04:02:58;;;;;;;2.47;1.85;;;15.90;88.20;;;;;;5091215;28;20185;-79
2023/06/08 04:05:24;;;;;;;1.83;1.25;;;16.00;88.20;;;;;;5093131;28;20655;-80
2023/06/08 04:07:53;;;;;;;1.52;1.45;;;16.00;88.20;;;;;;5099932;28;20242;-79
2023/06/08 04:10:19;;;;;;;1.70;1.60;;;16.00;88.30;;;;;;5081587;28;20206;-81
2023/06/08 04:12:44;;;;;;;1.50;1.25;;;16.00;88.30;;;;;;5079019;28;20263;-78
2023/06/08 04:15:13;;;;;;;1.20;1.20;;;16.10;88.30;;;;;;5097971;28;20559;-79
2023/06/08 04:17:43;;;;;;;1.10;1.10;;;16.10;88.20;;;;;;5092107;28;20582;-80
2023/06/08 04:20:11;;;;;;;2.25;1.27;;;16.20;88.30;;;;;;5097814;28;20205;-78
2023/06/08 04:22:36;;;;;;;0.90;0.90;;;16.20;88.10;;;;;;5092995;28;20179;-78
2023/06/08 04:25:03;;;;;;;2.25;1.27;;;16.20;88.10;;;;;;5107183;28;20195;-78
2023/06/08 04:27:29;;;;;;;1.33;1.33;;;16.20;88.10;;;;;;5110983;28;20186;-76
2023/06/08 04:29:55;;;;;;;1.20;1.20;;;16.30;88.10;;;;;;5102571;28;20201;-77
2023/06/08 04:32:21;;;;;;;1.35;1.23;;;16.30;87.90;;;;;;5092068;28;20210;-78
2023/06/08 04:34:46;;;;;;;1.33;1.30;;;16.30;87.90;;;;;;5088750;28;20236;-76
2023/06/08 04:37:13;;;;;;;4.18;1.20;;;16.40;87.90;;;;;;5090511;28;20257;-77
2023/06/08 04:39:39;;;;;;;0.98;0.98;;;16.40;87.80;;;;;;5085723;28;20185;-77
2023/06/08 04:42:05;;;;;;;1.77;1.08;;;16.40;87.70;;;;;;5094903;28;20244;-78
2023/06/08 04:44:33;;;;;;;1.35;1.30;;;16.50;87.70;;;;;;5090741;28;20175;-76
2023/06/08 04:46:59;;;;;;;1.25;1.15;;;16.50;87.70;;;;;;5071960;28;20193;-77
2023/06/08 04:49:31;;;;;;;1.25;1.25;;;16.50;87.60;;;;;;5071840;28;20664;-78
2023/06/08 04:51:58;;;;;;;1.55;1.48;;;16.60;87.80;;;;;;5093135;28;20212;-77
2023/06/08 04:54:25;;;;;;;1.90;1.30;;;16.60;87.40;;;;;;5090384;28;20243;-82
2023/06/08 04:56:53;;;;;;;1.60;1.50;;;16.70;87.50;;;;;;5089773;28;20258;-80
2023/06/08 04:59:19;;;;;;;1.33;1.33;;;16.70;87.40;;;;;;5076460;28;20182;-80
2023/06/08 05:01:45;;;;;;;6.32;1.40;;;16.80;87.50;;;;;;5085650;28;20255;-80
2023/06/08 05:04:11;;;;;;;2.25;1.50;;;16.80;87.30;;;;;;5085098;28;20645;-79
2023/06/08 05:06:37;;;;;;;1.65;1.25;;;16.80;87.20;;;;;;5091669;28;20179;-80
2023/06/08 05:09:03;;;;;;;1.40;0.90;;;16.90;87.10;;;;;;5070891;28;20190;-80
2023/06/08 05:11:29;;;;;;;1.25;1.23;;;16.90;87.20;;;;;;5092716;28;20177;-80
2023/06/08 05:13:54;;;;;;;4.40;1.58;;;17.00;87.10;;;;;;5086977;28;20185;-81
2023/06/08 05:16:20;;;;;;;1.27;1.27;;;17.10;86.60;;;;;;5089662;28;20736;-79
2023/06/08 05:18:46;;;;;;;1.50;1.40;;;17.10;86.30;;;;;;5084869;28;20180;-79
2023/06/08 05:21:11;;;;;;;1.23;1.15;;;17.20;86.30;;;;;;5090729;28;20964;-79
2023/06/08 05:23:38;;;;;;;1.05;1.05;;;17.20;86.20;;;;;;5087622;28;20187;-82
2023/06/08 05:26:04;;;;;;;2.00;1.35;;;17.30;86.40;;;;;;5089169;28;20272;-79
2023/06/08 05:28:29;;;;;;;1.23;1.23;;;17.30;85.30;;;;;;5091130;28;20253;-80
2023/06/08 05:30:55;;;;;;;1.95;1.65;;;17.30;85.30;;;;;;5094977;28;20270;-80
2023/06/08 05:33:21;;;;;;;1.92;1.30;;;17.40;85.50;;;;;;5094383;28;20217;-80
2023/06/08 05:35:46;;;;;;;1.45;1.35;;;17.50;85.20;;;;;;5092378;28;20177;-79
2023/06/08 05:38:12;;;;;;;1.50;1.40;;;17.50;85.40;;;;;;5090529;28;20230;-79
2023/06/08 05:40:39;;;;;;;1.80;1.30;;;17.50;84.80;;;;;;5091911;28;20284;-77
2023/06/08 05:43:05;;;;;;;1.48;1.48;;;17.60;84.40;;;;;;5098761;28;20671;-77
2023/06/08 05:45:30;;;;;;;1.52;1.52;;;17.60;85.00;;;;;;5087298;28;20201;-77
2023/06/08 05:47:56;;;;;;;1.15;1.15;;;17.70;84.70;;;;;;5091743;28;20177;-77
2023/06/08 05:50:22;;;;;;;2.28;1.35;;;17.70;84.40;;;;;;5098599;28;20254;-76
2023/06/08 05:52:47;;;;;;;1.27;1.23;;;17.80;84.50;;;;;;5091726;28;20206;-77
2023/06/08 05:55:13;;;;;;;1.20;1.20;;;17.90;84.10;;;;;;5073904;28;20261;-77
2023/06/08 05:57:40;;;;;;;1.50;1.50;;;17.90;83.40;;;;;;5103141;28;20227;-77
2023/06/08 06:00:09;;;;;;;1.30;1.30;;;18.00;83.10;;;;;;5099930;28;20177;-76
2023/06/08 06:02:35;;;;;;;3.03;1.50;;;18.10;83.30;;;;;;5095662;28;20177;-77
2023/06/08 06:05:01;;;;;;;1.30;1.25;;;18.10;82.90;;;;;;5095873;28;20171;-76
2023/06/08 06:07:26;;;;;;;3.58;2.92;;;18.10;82.50;;;;;;5091719;28;20198;-76
2023/06/08 06:09:52;;;;;;;1.95;1.77;;;18.20;83.00;;;;;;5094264;28;20271;-76
2023/06/08 06:12:18;;;;;;;2.22;1.77;;;18.20;83.10;;;;;;5099313;28;20316;-77
2023/06/08 06:14:43;;;;;;;1.50;1.40;;;18.30;82.90;;;;;;5094770;28;20261;-76
2023/06/08 06:17:11;;;;;;;1.48;1.13;;;18.40;82.90;;;;;;5092899;28;20671;-76
2023/06/08 06:19:37;;;;;;;1.30;1.20;;;18.40;82.00;;;;;;5086774;28;20253;-77
2023/06/08 06:22:08;;;;;;;1.23;1.20;;;18.50;81.10;;;;;;5092331;28;20182;-76
2023/06/08 06:24:35;;;;;;;2.92;1.50;;;18.60;81.70;;;;;;5088302;28;20275;-77
2023/06/08 06:27:01;;;;;;;4.32;1.25;;;18.60;81.70;;;;;;5092062;28;20679;-76
2023/06/08 06:29:27;;;;;;;0.90;0.90;;;18.70;81.10;;;;;;5092357;28;20190;-77
2023/06/08 06:31:53;;;;;;;1.05;1.05;;;18.80;80.90;;;;;;5088715;28;20327;-77
2023/06/08 06:34:20;;;;;;;1.38;1.13;;;18.80;80.50;;;;;;5091123;28;20201;-77
2023/06/08 06:36:46;;;;;;;2.38;1.05;;;18.90;79.80;;;;;;5095795;28;20194;-77
2023/06/08 06:39:12;;;;;;;1.95;0.93;;;18.90;80.00;;;;;;5083813;28;20710;-78
2023/06/08 06:41:41;;;;;;;1.20;1.10;;;19.00;80.10;;;;;;5088108;28;20219;-76
2023/06/08 06:44:08;;;;;;;1.13;1.10;;;19.10;80.30;;;;;;5089376;28;20209;-77
2023/06/08 06:46:33;;;;;;;1.27;1.25;;;19.20;79.50;;;;;;5079980;28;20258;-76
2023/06/08 06:48:59;;;;;;;1.38;1.02;;;19.30;79.80;;;;;;5092992;28;20256;-77
2023/06/08 06:51:25;;;;;;;1.10;1.08;;;19.40;79.80;;;;;;5090317;28;20178;-77
2023/06/08 06:53:51;;;;;;;2.38;1.48;;;19.40;79.60;;;;;;5088929;28;20206;-79
2023/06/08 06:56:17;;;;;;;1.20;1.20;;;19.50;79.30;;;;;;5081644;28;20564;-77
2023/06/08 06:58:45;;;;;;;1.20;1.20;;;19.60;78.80;;;;;;5064278;28;20171;-78
2023/06/08 07:01:12;;;;;;;1.88;1.27;;;19.70;79.00;;;;;;5084966;28;20210;-77
2023/06/08 07:03:40;;;;;;;1.20;1.10;;;19.80;79.00;;;;;;5072953;28;20846;-76
2023/06/08 07:06:06;;;;;;;1.08;1.05;;;19.90;77.80;;;;;;5065933;28;20778;-77
2023/06/08 07:08:34;;;;;;;1.10;1.10;;;19.90;76.90;;;;;;5091908;28;20197;-76
2023/06/08 07:11:01;;;;;;;1.10;1.10;;;20.00;77.30;;;;;;5089426;28;20178;-76
2023/06/08 07:13:27;;;;;;;1.17;1.15;;;20.10;77.10;;;;;;5091628;28;20202;-76
2023/06/08 07:15:53;;;;;;;1.13;1.10;;;20.20;77.30;;;;;;5084521;28;20614;-76
2023/06/08 07:18:18;;;;;;;1.25;1.17;;;20.20;77.40;;;;;;5071352;28;20182;-77
2023/06/08 07:20:44;;;;;;;1.80;1.10;;;20.20;77.20;;;;;;5090659;28;20581;-78
2023/06/08 07:23:10;;;;;;;1.08;1.08;;;20.30;77.30;;;;;;5089603;28;20190;-78
2023/06/08 07:25:37;;;;;;;2.45;1.23;;;20.40;77.10;;;;;;5071512;28;20174;-78
2023/06/08 07:28:07;;;;;;;1.30;1.30;;;20.50;76.90;;;;;;5073922;28;20567;-77
2023/06/08 07:30:32;;;;;;;1.33;1.33;;;20.60;76.70;;;;;;5081416;28;20251;-78
2023/06/08 07:32:59;;;;;;;4.15;1.50;;;20.70;77.50;;;;;;5091609;28;20221;-78
2023/06/08 07:35:25;;;;;;;3.13;1.33;;;20.80;76.50;;;;;;5071616;28;20186;-78
2023/06/08 07:37:52;;;;;;;2.55;1.40;;;20.90;75.90;;;;;;5068095;28;20281;-77
2023/06/08 07:40:18;;;;;;;1.55;1.48;;;21.00;76.20;;;;;;5065316;28;20671;-78
2023/06/08 07:42:44;;;;;;;0.98;0.98;;;21.10;76.10;;;;;;5068833;28;20185;-77
2023/06/08 07:45:11;;;;;;;1.17;1.15;;;21.20;76.60;;;;;;5087687;28;20186;-78
2023/06/08 07:47:38;;;;;;;4.03;1.50;;;21.30;76.50;;;;;;5077377;28;20615;-78
2023/06/08 07:50:05;;;;;;;1.17;1.15;;;21.40;76.10;;;;;;5092893;28;20189;-78
2023/06/08 07:52:31;;;;;;;1.23;1.23;;;21.40;76.00;;;;;;5090474;28;20319;-78
2023/06/08 07:54:57;;;;;;;1.30;1.17;;;21.50;75.50;;;;;;5089812;28;20175;-76
2023/06/08 07:57:23;;;;;;;1.70;1.60;;;21.60;75.00;;;;;;5091395;28;20246;-77
2023/06/08 07:59:49;;;;;;;1.58;1.48;;;21.70;75.10;;;;;;5087985;28;20179;-78
2023/06/08 08:02:14;;;;;;;1.45;1.38;;;21.80;75.50;;;;;;5075104;28;20629;-77
2023/06/08 08:04:40;;;;;;;1.55;1.55;;;22.00;75.50;;;;;;5090563;28;20247;-77
2023/06/08 08:07:07;;;;;;;1.48;1.40;;;22.10;74.80;;;;;;5073977;28;20185;-76
2023/06/08 08:09:32;;;;;;;1.83;1.63;;;22.20;73.80;;;;;;5071746;28;20185;-76
2023/06/08 08:11:58;;;;;;;1.38;1.38;;;22.30;73.80;;;;;;5087554;28;20214;-75
2023/06/08 08:14:24;;;;;;;1.63;1.25;;;22.40;74.30;;;;;;5094457;28;20213;-76
2023/06/08 08:16:50;;;;;;;3.85;1.70;;;22.50;73.80;;;;;;5090101;28;20251;-78
2023/06/08 08:19:16;;;;;;;1.90;1.80;;;22.60;74.20;;;;;;5071301;28;20273;-76
2023/06/08 08:21:42;;;;;;;1.90;1.80;;;22.80;74.60;;;;;;5088632;28;20182;-78
2023/06/08 08:24:08;;;;;;;1.50;1.50;;;22.90;73.70;;;;;;5090437;28;20238;-76
2023/06/08 08:26:35;;;;;;;1.83;1.63;;;22.90;73.00;;;;;;5085775;28;20178;-79
2023/06/08 08:29:01;;;;;;;2.15;1.48;;;23.00;73.70;;;;;;5083697;28;20179;-75
2023/06/08 08:31:26;;;;;;;1.15;1.15;;;23.10;72.90;;;;;;5091607;28;20197;-78
2023/06/08 08:33:52;;;;;;;1.90;1.50;;;23.20;72.80;;;;;;5081376;28;20214;-76
2023/06/08 08:36:17;;;;;;;2.17;1.80;;;23.30;72.60;;;;;;5088258;28;20186;-78
2023/06/08 08:38:43;;;;;;;1.40;1.30;;;23.50;73.60;;;;;;5084070;28;20717;-77
2023/06/08 08:41:13;;;;;;;1.77;1.67;;;23.60;72.80;;;;;;5061943;28;20197;-77
2023/06/08 08:43:50;;;;;;;1.67;1.58;;;23.70;72.80;;;;;;5093551;28;20175;-76
2023/06/08 08:46:21;;;;;;;1.77;1.73;;;23.80;72.40;;;;;;5087741;28;20178;-77
2023/06/08 08:48:50;;;;;;;1.58;1.48;;;23.90;73.10;;;;;;5092976;28;20231;-77
2023/06/08 08:51:19;;;;;;;1.73;1.63;;;23.90;72.80;;;;;;5083795;28;20650;-78
2023/06/08 08:53:55;;;;;;;1.50;1.40;;;24.00;72.80;;;;;;5096447;28;20214;-77
2023/06/08 08:56:25;;;;;;;2.05;1.52;;;24.10;72.80;;;;;;5073740;28;20181;-77
2023/06/08 08:58:54;;;;;;;2.03;1.50;;;24.10;72.10;;;;;;5097028;28;20185;-77
2023/06/08 09:01:22;;;;;;;1.48;1.48;;;24.20;72.70;;;;;;5094086;28;20227;-77
2023/06/08 09:03:48;;;;;;;1.50;1.50;;;24.20;72.20;;;;;;5096011;28;20267;-77
2023/06/08 09:06:14;;;;;;;1.30;1.30;;;24.30;70.90;;;;;;5096073;28;20244;-77
2023/06/08 09:08:40;;;;;;;1.27;1.27;;;24.40;71.30;;;;;;5079589;28;20279;-76
2023/06/08 09:11:09;;;;;;;1.90;1.80;;;24.50;70.90;;;;;;5097319;28;20166;-77
2023/06/08 09:13:35;;;;;;;2.80;1.60;;;24.60;68.70;;;;;;5093526;28;20202;-77
2023/06/08 09:16:14;;;;;;;1.58;1.48;;;24.50;68.90;;;;;;5095766;28;20182;-77
2023/06/08 09:18:41;;;;;;;2.35;1.25;;;24.50;70.50;;;;;;5096480;28;20189;-77
2023/06/08 09:21:29;;;;;;;1.67;1.10;;;24.60;71.00;;;;;;5090456;28;20218;-78
2023/06/08 09:24:16;;;;;;;1.45;1.45;;;24.60;71.50;;;;;;5101617;28;20189;-78
2023/06/08 09:26:56;;;;;;;2.00;1.83;;;24.70;71.10;;;;;;5090474;28;20210;-77
2023/06/08 09:29:40;;;;;;;1.63;1.52;;;24.80;70.50;;;;;;5094817;28;20280;-77
2023/06/08 09:32:12;;;;;;;1.92;1.63;;;24.90;69.90;;;;;;5077526;28;20210;-77
2023/06/08 09:34:49;;;;;;;1.60;1.60;;;25.00;69.30;;;;;;5078245;28;20182;-77
2023/06/08 09:37:15;;;;;;;1.50;1.40;;;25.10;69.40;;;;;;5094658;28;20239;-77
2023/06/08 09:39:45;;;;;;;1.45;1.45;;;25.20;67.70;;;;;;5091931;28;20398;-77
2023/06/08 09:42:11;;;;;;;3.45;1.77;;;25.20;68.30;;;;;;5092500;28;20955;-77
2023/06/08 09:44:37;;;;;;;1.20;1.20;;;25.20;67.80;;;;;;5080746;28;20174;-77
2023/06/08 09:47:25;;;;;;;1.40;1.30;;;25.10;67.30;;;;;;5088943;28;20243;-77
2023/06/08 09:49:52;;;;;;;1.55;1.50;;;25.00;67.50;;;;;;5093209;28;20182;-77
2023/06/08 09:52:22;;;;;;;1.80;1.70;;;25.00;68.60;;;;;;5090242;28;20262;-77
2023/06/08 09:54:49;;;;;;;1.70;1.70;;;25.10;68.60;;;;;;5092782;28;20242;-77
2023/06/08 09:57:16;;;;;;;1.33;1.33;;;25.10;69.70;;;;;;5086735;28;20644;-80
2023/06/08 09:59:53;;;;;;;1.48;1.48;;;25.30;68.80;;;;;;5093657;28;20204;-77
2023/06/08 10:02:33;;;;;;;1.55;1.27;;;25.50;69.10;;;;;;5092569;28;20179;-77
2023/06/08 10:05:09;;;;;;;1.30;1.20;;;25.70;68.80;;;;;;5089530;28;20239;-77
2023/06/08 10:07:36;;;;;;;1.27;1.27;;;25.90;65.90;;;;;;5074983;28;20639;-77
2023/06/08 10:10:19;;;;;;;1.20;1.20;;;26.00;66.40;;;;;;5086976;28;20651;-77
2023/06/08 10:12:46;;;;;;;1.35;1.35;;;26.30;65.10;;;;;;5091647;28;20214;-76
2023/06/08 10:15:12;;;;;;;1.95;1.20;;;26.50;65.50;;;;;;5090930;28;20272;-77
2023/06/08 10:17:38;;;;;;;1.50;1.40;;;26.70;64.90;;;;;;5090059;28;20257;-76
2023/06/08 10:20:08;;;;;;;1.63;1.63;;;26.80;64.90;;;;;;5086777;28;20194;-77
2023/06/08 10:22:35;;;;;;;2.80;1.52;;;26.90;65.50;;;;;;5073921;28;20186;-77
2023/06/08 10:25:03;;;;;;;1.75;1.63;;;27.10;64.40;;;;;;5068562;28;20566;-77
2023/06/08 10:27:30;;;;;;;2.67;1.70;;;27.30;64.30;;;;;;5084576;28;20179;-77
2023/06/08 10:29:57;;;;;;;1.15;1.15;;;27.50;63.50;;;;;;5091100;28;20189;-77
2023/06/08 10:32:30;;;;;;;1.65;1.58;;;27.80;63.60;;;;;;5087856;28;20713;-77
2023/06/08 10:34:57;;;;;;;1.48;1.38;;;28.00;63.10;;;;;;5090023;28;20210;-77
2023/06/08 10:37:30;;;;;;;1.48;1.48;;;28.30;61.70;;;;;;5087660;28;20170;-77
2023/06/08 10:40:08;;;;;;;1.90;1.50;;;28.60;62.60;;;;;;5088479;28;20181;-77
2023/06/08 10:42:34;;;;;;;1.42;1.42;;;28.80;60.10;;;;;;5070170;28;20185;-81
2023/06/08 10:45:02;;;;;;;1.48;1.38;;;29.10;61.20;;;;;;5090001;28;20174;-79
2023/06/08 10:47:31;;;;;;;1.40;1.40;;;29.10;62.00;;;;;;5089397;28;20166;-78
2023/06/08 10:50:02;;;;;;;1.10;1.10;;;29.40;60.70;;;;;;5090706;28;20170;-78
2023/06/08 10:52:37;;;;;;;1.33;1.33;;;30.10;58.70;;;;;;5072207;28;20717;-78
2023/06/08 10:55:08;;;;;;;1.83;1.25;;;30.30;59.20;;;;;;5088332;28;20218;-75
2023/06/08 10:57:45;;;;;;;1.10;1.10;;;30.40;59.20;;;;;;5083324;28;20274;-76
2023/06/08 11:00:25;;;;;;;2.10;1.48;;;30.90;58.40;;;;;;5087186;28;20188;-75
2023/06/08 11:02:56;;;;;;;2.00;1.38;;;31.70;57.80;;;;;;5071820;28;20662;-76
2023/06/08 11:05:23;;;;;;;1.20;1.20;;;31.90;55.70;;;;;;5090246;28;20169;-79
2023/06/08 11:07:50;;;;;;;3.60;1.27;;;32.20;54.80;;;;;;5071522;28;20166;-77
2023/06/08 11:10:15;;;;;;;2.72;1.20;;;32.20;56.10;;;;;;5085817;28;20177;-78
2023/06/08 11:12:41;;;;;;;1.25;1.25;;;32.20;55.80;;;;;;5089552;28;20209;-81
2023/06/08 11:15:07;;;;;;;1.35;1.25;;;32.10;55.40;;;;;;5087845;28;20182;-79
2023/06/08 11:17:43;;;;;;;0.90;0.90;;;32.10;55.40;;;;;;5085862;28;20231;-79
2023/06/08 11:20:09;;;;;;;1.00;1.00;;;32.40;54.90;;;;;;5090526;28;20185;-79
2023/06/08 11:22:38;;;;;;;1.17;1.17;;;32.60;52.90;;;;;;5091232;28;20231;-79
2023/06/08 11:25:05;;;;;;;1.15;1.15;;;32.60;52.90;;;;;;5090250;28;20182;-79
2023/06/08 11:27:31;;;;;;;1.00;1.00;;;32.80;55.50;;;;;;5091115;28;20177;-79
2023/06/08 11:29:56;;;;;;;1.00;1.00;;;33.20;53.80;;;;;;5089889;28;20561;-79
2023/06/08 11:32:25;;;;;;;1.13;1.13;;;33.60;53.80;;;;;;5092052;28;20221;-79
2023/06/08 11:34:51;;;;;;;1.08;1.08;;;33.90;53.20;;;;;;5094432;28;20197;-77
2023/06/08 11:37:17;;;;;;;2.25;1.23;;;34.30;53.20;;;;;;5085661;28;20209;-76
2023/06/08 11:39:47;;;;;;;1.23;1.23;;;34.20;53.20;;;;;;5086582;28;20262;-80
2023/06/08 11:42:13;;;;;;;1.20;1.20;;;34.50;53.00;;;;;;5085471;28;20177;-79
2023/06/08 11:44:39;;;;;;;2.05;1.00;;;34.80;51.40;;;;;;5083739;28;20710;-79
2023/06/08 11:47:08;;;;;;;1.20;1.20;;;34.40;53.70;;;;;;5082694;28;20282;-78
2023/06/08 11:49:53;;;;;;;2.67;1.17;;;34.40;53.60;;;;;;5089206;28;20208;-78
2023/06/08 11:52:21;;;;;;;1.05;1.02;;;34.00;52.90;;;;;;5087361;28;20577;-77
2023/06/08 11:54:50;;;;;;;1.10;1.10;;;34.20;51.90;;;;;;5087040;28;20245;-79
2023/06/08 11:57:16;;;;;;;1.20;1.15;;;34.30;52.00;;;;;;5087947;28;20185;-78
2023/06/08 11:59:42;;;;;;;1.48;1.42;;;34.50;52.20;;;;;;5087860;28;20749;-78
2023/06/08 12:02:11;;;;;;;2.40;1.05;;;34.90;51.10;;;;;;5087154;28;20191;-77
2023/06/08 12:04:37;;;;;;;1.23;1.23;;;35.00;51.50;;;;;;5085719;28;20494;-77
2023/06/08 12:07:15;;;;;;;2.05;0.85;;;35.10;51.20;;;;;;5083646;28;20231;-78
2023/06/08 12:09:48;;;;;;;1.67;1.50;;;35.30;51.00;;;;;;5086412;28;20185;-77
2023/06/08 12:12:14;;;;;;;1.38;1.38;;;35.70;51.00;;;;;;5092058;28;20209;-78
2023/06/08 12:14:47;;;;;;;1.45;1.45;;;35.90;51.30;;;;;;5087808;28;20185;-78
2023/06/08 12:17:17;;;;;;;1.30;1.25;;;35.90;53.10;;;;;;5081981;28;20235;-77
2023/06/08 12:19:46;;;;;;;1.00;1.00;;;35.60;51.80;;;;;;5088059;28;20178;-77
2023/06/08 12:22:14;;;;;;;1.13;1.13;;;35.30;50.90;;;;;;5085401;28;20332;-78
2023/06/08 12:24:40;;;;;;;1.45;1.25;;;35.30;50.70;;;;;;5086735;28;20752;-78
2023/06/08 12:27:06;;;;;;;1.63;1.10;;;35.50;51.20;;;;;;5092677;28;20185;-78
2023/06/08 12:29:36;;;;;;;1.20;1.20;;;35.90;50.30;;;;;;5077202;28;20201;-77
2023/06/08 12:32:02;;;;;;;1.45;1.40;;;36.60;50.00;;;;;;5091099;28;20553;-77
2023/06/08 12:34:29;;;;;;;1.80;1.70;;;37.10;50.00;;;;;;5089097;28;20169;-78
2023/06/08 12:36:55;;;;;;;1.38;1.38;;;37.30;51.10;;;;;;5093225;28;20196;-78
2023/06/08 12:39:21;;;;;;;1.45;1.40;;;36.70;50.80;;;;;;5092984;28;20173;-78
2023/06/08 12:41:46;;;;;;;6.05;1.50;;;36.70;50.80;;;;;;5091986;28;20177;-77
2023/06/08 12:44:12;;;;;;;1.70;1.48;;;35.90;53.00;;;;;;5093906;28;20173;-77
2023/06/08 12:46:39;;;;;;;1.40;1.40;;;34.60;52.60;;;;;;5088467;28;20174;-78
2023/06/08 12:49:04;;;;;;;1.35;1.15;;;34.00;54.70;;;;;;5091255;28;20199;-78
2023/06/08 12:51:30;;;;;;;1.95;1.50;;;34.00;55.40;;;;;;5093165;28;20659;-78